Current | Forecast
Updated: 2:30 AM CEST on October 21, 2017
Observed at La Coruna Airport, Spain
Temperature 16°C
Humidity 77%
Dew Point 12°C
Wind West at 13 km/h
Pressure 1021 hPa (Rising)
Conditions Partly Cloudy
Visibility 10.0 kilometers
UV 0 out of 16
Clouds (FEW) : 1310 m
Yesterday's Maximum 23°C
Yesterday's Minimum 14°C approx.
Yesterday's Cooling Degree Days N/A approx.
Sunrise8:54 AM CEST
Sunset7:40 PM CEST
Moon Rise10:19 AM CEST
Moon Set9:01 PM CEST
Moon PhaseMoon Phase
New Moon
Raw METARMETAR LECO 210030Z AUTO 26007KT 220V320 9999 FEW043 16/12 Q1021


Monday
. High: 64° F.
Tuesday
. High: 62° F.
Wednesday
. High: 57° F.
Thursday
. High: 59° F.
Friday
. High: 69° F.
Saturday
. High: 59° F.
Sunday
. High: 62° F.
Monday
. High: 73° F.

Click here for Marine Information
Scientific forecaster discussion (NWS)

Units: English | Metric

Find the Weather for any City, State or Zipcode, or Country:

U.S. State List | Severe Weather | Tropical Storms | Ski Conditions
United States | Canada | Central America | South America | Asia | Europe | Australia | Africa | Islands

Weather Underground

© Copyright 2017
The Weather Company, LLC